Terminal Aerodrome Forecast
Issued by NWS Detroit/Pontiac, MI

Home | Current Version | Previous Version | Text Only | Print | Product List | Glossary On
Versions: 1 2 3 4 5 6 7 8 9 10 11 12 13 14 15 16 17 18 19 20 21 22 23 24 25 26 27 28
225
FTUS43 KDTX 211505 AAA
TAFDTW
TAF AMD
KDTW 211505Z 2115/2218 21005KT P6SM BKN045 OVC100
      TEMPO 2117/2120 6SM -SHRA BKN030 OVC050
     FM212000 21007KT P6SM BKN040 OVC150
     FM220200 VRB03KT 2SM BR OVC008
     FM220500 VRB03KT 1SM BR OVC004
     FM221400 20006KT 4SM BR BKN006 OVC022=

USA.gov is the U.S. government's official web portal to all federal, state and local government web resources and services.